createdAt,value
2023-05-18T00:02:01.472Z,5.00
2023-05-18T00:04:29.785Z,4.50
2023-05-18T00:07:03.826Z,4.40
2023-05-18T00:09:35.704Z,4.40
2023-05-18T00:12:04.038Z,4.30
2023-05-18T00:14:31.211Z,4.70
2023-05-18T00:16:58.101Z,4.60
2023-05-18T00:19:25.134Z,4.80
2023-05-18T00:21:52.716Z,3.80
2023-05-18T00:24:19.851Z,4.40
2023-05-18T00:26:47.415Z,4.20
2023-05-18T00:29:14.233Z,4.10
2023-05-18T00:31:42.175Z,4.10
2023-05-18T00:34:12.202Z,4.60
2023-05-18T00:36:39.392Z,4.30
2023-05-18T00:39:07.270Z,4.50
2023-05-18T00:41:34.052Z,4.50
2023-05-18T00:44:01.126Z,5.20
2023-05-18T00:46:28.387Z,4.50
2023-05-18T00:49:02.000Z,4.80
2023-05-18T00:51:29.152Z,4.80
2023-05-18T00:53:57.073Z,4.60
2023-05-18T00:56:25.098Z,5.10
2023-05-18T00:58:55.968Z,5.40
2023-05-18T01:01:31.805Z,5.70
2023-05-18T01:04:02.483Z,5.40
2023-05-18T01:06:41.193Z,4.90
2023-05-18T01:09:10.929Z,5.20
2023-05-18T01:11:44.471Z,5.00
2023-05-18T01:14:31.953Z,4.70
2023-05-18T01:17:20.164Z,4.60
2023-05-18T01:19:56.074Z,4.90
2023-05-18T01:22:33.605Z,6.20
2023-05-18T01:25:04.803Z,5.00
2023-05-18T01:27:37.571Z,5.40
2023-05-18T01:30:08.137Z,5.10
2023-05-18T01:32:42.681Z,5.20
2023-05-18T01:35:09.723Z,5.60
2023-05-18T01:37:36.513Z,5.70
2023-05-18T01:40:05.161Z,5.20
2023-05-18T01:42:31.999Z,5.60
2023-05-18T01:45:00.572Z,5.20
2023-05-18T01:47:28.585Z,5.60
2023-05-18T01:50:17.258Z,5.50
2023-05-18T01:53:03.723Z,5.10
2023-05-18T01:55:30.940Z,5.40
2023-05-18T01:57:58.218Z,4.70
2023-05-18T02:00:25.021Z,5.90
2023-05-18T02:02:51.944Z,6.00
2023-05-18T02:05:19.161Z,6.70
2023-05-18T02:07:48.679Z,5.80
2023-05-18T02:10:15.638Z,6.80
2023-05-18T02:12:42.513Z,5.80
2023-05-18T02:15:09.940Z,5.80
2023-05-18T02:17:39.749Z,5.20
2023-05-18T02:20:08.733Z,4.70
2023-05-18T02:22:36.297Z,4.80
2023-05-18T02:25:05.226Z,4.80
2023-05-18T02:27:34.036Z,5.20
2023-05-18T02:30:01.006Z,5.00
2023-05-18T02:34:24.973Z,4.50
2023-05-18T02:36:51.840Z,5.20
2023-05-18T02:39:19.132Z,4.90
2023-05-18T02:41:46.269Z,4.50
2023-05-18T02:44:13.095Z,4.50
2023-05-18T02:46:39.980Z,4.40
2023-05-18T02:49:07.242Z,5.60
2023-05-18T02:51:34.175Z,5.40
2023-05-18T02:54:01.625Z,5.30
2023-05-18T02:56:29.323Z,5.70
2023-05-18T02:59:07.921Z,6.00
2023-05-18T03:01:38.908Z,6.30
2023-05-18T03:04:05.815Z,7.10
2023-05-18T03:06:32.946Z,7.40
2023-05-18T03:08:59.924Z,6.80
2023-05-18T03:11:32.750Z,6.60
2023-05-18T03:13:59.672Z,6.90
2023-05-18T03:16:28.701Z,5.70
2023-05-18T03:18:59.428Z,5.90
2023-05-18T03:21:34.191Z,6.40
2023-05-18T03:24:02.850Z,6.20
2023-05-18T03:26:31.037Z,6.10
2023-05-18T03:28:58.491Z,5.40
2023-05-18T03:31:26.032Z,6.30
2023-05-18T03:33:52.982Z,5.80
2023-05-18T03:36:22.663Z,6.30
2023-05-18T03:38:49.644Z,6.00
2023-05-18T03:41:16.469Z,6.40
2023-05-18T03:43:43.428Z,6.30
2023-05-18T03:46:11.536Z,6.20
2023-05-18T03:48:38.674Z,5.90
2023-05-18T03:51:06.503Z,5.40
2023-05-18T03:53:34.954Z,5.70
2023-05-18T03:56:01.926Z,5.50
2023-05-18T03:58:30.184Z,5.70
2023-05-18T04:00:57.948Z,4.90
2023-05-18T04:03:27.274Z,5.00
2023-05-18T04:05:55.879Z,5.30
2023-05-18T04:08:25.675Z,5.60
2023-05-18T04:10:52.634Z,5.70
2023-05-18T04:13:19.479Z,5.80
2023-05-18T04:15:47.838Z,5.50
2023-05-18T04:18:14.807Z,5.30
2023-05-18T04:20:42.770Z,5.50
2023-05-18T04:23:10.462Z,5.10
2023-05-18T04:25:39.548Z,5.30
2023-05-18T04:28:06.986Z,5.00
2023-05-18T04:30:35.609Z,5.30
2023-05-18T04:33:04.131Z,5.20
2023-05-18T04:35:32.228Z,4.90
2023-05-18T04:37:59.550Z,5.30
2023-05-18T04:40:26.674Z,5.30
2023-05-18T04:42:53.677Z,4.70
2023-05-18T04:45:26.463Z,5.00
2023-05-18T04:47:55.316Z,4.70
2023-05-18T04:50:25.578Z,5.20
2023-05-18T04:52:52.542Z,4.20
2023-05-18T04:55:29.028Z,5.20
2023-05-18T04:58:06.114Z,6.00
2023-05-18T05:00:33.331Z,4.90
2023-05-18T05:03:00.327Z,5.10
2023-05-18T05:05:27.677Z,4.70
2023-05-18T05:07:56.016Z,5.20
2023-05-18T05:10:22.975Z,4.50
2023-05-18T05:12:50.718Z,5.40
2023-05-18T05:15:18.947Z,4.70
2023-05-18T05:17:49.818Z,3.90
2023-05-18T05:20:17.225Z,4.40
2023-05-18T05:22:44.414Z,5.10
2023-05-18T05:25:13.735Z,4.70
2023-05-18T05:27:40.645Z,5.30
2023-05-18T05:30:08.443Z,4.80
2023-05-18T05:32:36.971Z,4.50
2023-05-18T05:35:06.176Z,5.00
2023-05-18T05:37:33.412Z,5.10
2023-05-18T05:40:00.270Z,4.70
2023-05-18T05:42:30.056Z,4.70
2023-05-18T05:44:57.061Z,4.70
2023-05-18T05:47:26.020Z,4.80
2023-05-18T05:49:53.045Z,4.20
2023-05-18T05:52:20.521Z,4.50
2023-05-18T05:54:47.538Z,4.20
2023-05-18T05:57:14.893Z,4.40
2023-05-18T05:59:41.820Z,4.10
2023-05-18T06:02:09.311Z,4.30
2023-05-18T06:04:36.353Z,4.50
2023-05-18T06:07:03.877Z,4.60
2023-05-18T06:09:30.675Z,4.80
2023-05-18T06:11:57.563Z,4.60
2023-05-18T06:14:25.781Z,4.60
2023-05-18T06:16:53.773Z,5.60
2023-05-18T06:19:20.953Z,8.30
2023-05-18T06:21:47.988Z,5.30
2023-05-18T06:24:14.887Z,4.60
2023-05-18T06:26:54.188Z,4.30
2023-05-18T06:29:47.214Z,4.60
2023-05-18T06:32:14.243Z,4.30
2023-05-18T06:34:45.901Z,4.00
2023-05-18T06:37:12.870Z,4.50
2023-05-18T06:39:40.404Z,4.30
2023-05-18T06:42:07.631Z,4.30
2023-05-18T06:44:35.968Z,4.40
2023-05-18T06:47:17.419Z,4.70
2023-05-18T06:49:44.372Z,5.40
2023-05-18T06:52:11.865Z,4.40
2023-05-18T06:54:38.774Z,4.60
2023-05-18T06:57:06.229Z,3.90
2023-05-18T06:59:34.756Z,4.20
2023-05-18T07:02:01.775Z,3.50
2023-05-18T07:04:29.927Z,3.60
2023-05-18T07:06:56.722Z,3.90
2023-05-18T07:09:24.012Z,3.90
2023-05-18T07:11:51.014Z,3.20
2023-05-18T07:14:17.869Z,3.70
2023-05-18T07:16:47.125Z,3.70
2023-05-18T07:19:14.693Z,3.80
2023-05-18T07:21:41.748Z,3.60
2023-05-18T07:24:08.589Z,3.90
2023-05-18T07:26:37.677Z,3.70
2023-05-18T07:29:04.881Z,3.30
2023-05-18T07:31:33.544Z,3.40
2023-05-18T07:34:00.401Z,3.60
2023-05-18T07:36:28.703Z,3.20
2023-05-18T07:38:56.963Z,3.70
2023-05-18T07:41:24.080Z,3.60
2023-05-18T07:43:51.383Z,3.60
2023-05-18T07:46:19.126Z,3.80
2023-05-18T07:48:46.417Z,3.80
2023-05-18T07:51:13.381Z,3.90
2023-05-18T07:53:41.667Z,4.10
2023-05-18T07:56:08.807Z,4.40
2023-05-18T07:58:36.286Z,4.40
2023-05-18T08:01:03.325Z,4.80
2023-05-18T08:03:30.263Z,4.60
2023-05-18T08:05:57.156Z,4.70
2023-05-18T08:08:24.637Z,3.90
2023-05-18T08:10:52.362Z,4.60
2023-05-18T08:13:20.062Z,4.80
2023-05-18T08:15:53.289Z,4.80
2023-05-18T08:19:02.855Z,5.70
2023-05-18T08:21:29.873Z,5.10
2023-05-18T08:23:56.731Z,4.70
2023-05-18T08:26:24.635Z,5.30
2023-05-18T08:28:51.588Z,5.20
2023-05-18T08:31:18.604Z,5.30
2023-05-18T08:33:45.440Z,5.60
2023-05-18T08:36:12.391Z,6.30
2023-05-18T08:38:39.287Z,7.00
2023-05-18T08:41:17.461Z,6.70
2023-05-18T08:43:47.080Z,7.10
2023-05-18T08:46:21.424Z,7.90
2023-05-18T08:48:49.056Z,8.00
2023-05-18T08:51:19.783Z,8.30
2023-05-18T08:53:57.607Z,7.10
2023-05-18T08:56:24.862Z,8.00
2023-05-18T08:58:54.851Z,7.60
2023-05-18T09:01:23.698Z,7.30
2023-05-18T09:03:50.669Z,7.60
2023-05-18T09:06:18.498Z,8.30
2023-05-18T09:08:46.202Z,8.40
2023-05-18T09:11:13.165Z,7.70
2023-05-18T09:13:39.910Z,8.10
2023-05-18T09:16:08.182Z,7.90
2023-05-18T09:18:35.075Z,7.30
2023-05-18T09:21:01.961Z,7.30
2023-05-18T09:23:28.763Z,7.90
2023-05-18T09:25:55.541Z,7.60
2023-05-18T09:28:33.283Z,6.80
2023-05-18T09:31:00.146Z,6.50
2023-05-18T09:33:27.146Z,7.00
2023-05-18T09:35:54.056Z,6.20
2023-05-18T09:38:24.601Z,6.90
2023-05-18T09:40:51.936Z,6.90
2023-05-18T09:43:21.796Z,6.40
2023-05-18T09:45:49.252Z,6.60
2023-05-18T09:48:16.364Z,6.10
2023-05-18T09:50:44.238Z,6.60
2023-05-18T09:53:11.251Z,6.90
2023-05-18T09:55:44.784Z,6.90
2023-05-18T09:58:11.889Z,7.20
2023-05-18T10:00:42.822Z,6.50
2023-05-18T10:03:20.651Z,6.60
2023-05-18T10:05:48.013Z,6.60
2023-05-18T10:08:15.414Z,6.90
2023-05-18T10:10:46.359Z,6.70
2023-05-18T10:13:19.537Z,6.80
2023-05-18T10:15:56.681Z,6.00
2023-05-18T10:18:24.853Z,6.50
2023-05-18T10:20:53.243Z,6.50
2023-05-18T10:23:20.961Z,6.70
2023-05-18T10:25:49.120Z,7.20
2023-05-18T10:28:38.252Z,6.30
2023-05-18T10:31:05.212Z,7.10
2023-05-18T10:33:32.078Z,6.50
2023-05-18T10:35:58.957Z,5.90
2023-05-18T10:38:27.605Z,6.60
2023-05-18T10:41:00.336Z,6.10
2023-05-18T10:43:28.188Z,7.70
2023-05-18T10:45:57.218Z,6.80
2023-05-18T10:48:24.434Z,6.50
2023-05-18T10:50:53.199Z,6.70
2023-05-18T10:53:21.197Z,6.60
2023-05-18T10:55:48.733Z,7.10
2023-05-18T10:58:17.003Z,6.90
2023-05-18T11:00:47.386Z,6.50
2023-05-18T11:03:14.542Z,6.30
2023-05-18T11:05:41.938Z,5.80
2023-05-18T11:08:08.954Z,6.30
2023-05-18T11:10:36.536Z,6.30
2023-05-18T11:13:03.410Z,6.20
2023-05-18T11:16:00.078Z,6.10
2023-05-18T11:18:35.294Z,6.30
2023-05-18T11:21:02.111Z,5.70
2023-05-18T11:23:32.728Z,6.00
2023-05-18T11:26:05.665Z,6.50
2023-05-18T11:28:33.852Z,6.40
2023-05-18T11:31:01.022Z,6.40
2023-05-18T11:33:31.673Z,6.00
2023-05-18T11:36:12.070Z,6.30
2023-05-18T11:39:07.050Z,6.00
2023-05-18T11:41:47.661Z,7.10
2023-05-18T11:44:15.341Z,6.00
2023-05-18T11:46:51.298Z,6.60
2023-05-18T11:49:18.479Z,6.30
2023-05-18T11:52:15.009Z,7.10
2023-05-18T11:54:54.196Z,6.40
2023-05-18T11:57:27.473Z,6.50
2023-05-18T11:59:55.719Z,6.00
2023-05-18T12:02:26.956Z,6.20
2023-05-18T12:04:55.305Z,6.00
2023-05-18T12:07:22.265Z,6.40
2023-05-18T12:09:49.212Z,6.20
2023-05-18T12:12:19.940Z,6.40
2023-05-18T12:14:55.700Z,6.40
2023-05-18T12:17:23.744Z,6.40
2023-05-18T12:19:50.700Z,7.10
2023-05-18T12:22:17.513Z,6.20
2023-05-18T12:24:44.445Z,6.50
2023-05-18T12:27:12.193Z,6.20
2023-05-18T12:29:42.882Z,6.00
2023-05-18T12:32:11.047Z,6.50
2023-05-18T12:34:39.433Z,6.20
2023-05-18T12:37:08.023Z,6.60
2023-05-18T12:39:37.843Z,5.70
2023-05-18T12:42:15.191Z,6.20
2023-05-18T12:44:45.824Z,6.10
2023-05-18T12:47:12.852Z,5.70
2023-05-18T12:49:48.125Z,7.20
2023-05-18T12:52:16.808Z,6.80
2023-05-18T12:55:18.274Z,6.30
2023-05-18T12:57:46.233Z,6.50
2023-05-18T13:00:13.548Z,6.40
2023-05-18T13:02:40.565Z,6.40
2023-05-18T13:05:11.747Z,6.60
2023-05-18T13:07:40.813Z,6.50
2023-05-18T13:10:08.553Z,6.80
2023-05-18T13:12:38.095Z,7.40
2023-05-18T13:15:13.056Z,7.40
2023-05-18T13:17:40.172Z,7.10
2023-05-18T13:20:14.659Z,7.00
2023-05-18T13:22:41.586Z,7.00
2023-05-18T13:25:08.490Z,6.60
2023-05-18T13:27:35.376Z,6.80
2023-05-18T13:30:02.357Z,7.30
2023-05-18T13:32:29.142Z,7.40
2023-05-18T13:34:56.015Z,7.70
2023-05-18T13:37:23.068Z,7.80
2023-05-18T13:39:49.886Z,7.90
2023-05-18T13:42:21.185Z,7.30
2023-05-18T13:44:48.378Z,7.40
2023-05-18T13:47:15.169Z,7.00
2023-05-18T13:49:41.999Z,7.40
2023-05-18T13:52:08.734Z,7.90
2023-05-18T13:54:35.525Z,7.30
2023-05-18T13:57:02.528Z,7.90
2023-05-18T13:59:29.366Z,6.80
2023-05-18T14:01:56.196Z,7.40
2023-05-18T14:04:23.078Z,7.70
2023-05-18T14:06:49.886Z,7.30
2023-05-18T14:09:16.680Z,7.90
2023-05-18T14:11:43.515Z,7.20
2023-05-18T14:14:10.591Z,7.60
2023-05-18T14:16:37.467Z,7.40
2023-05-18T14:19:04.386Z,8.00
2023-05-18T14:21:31.419Z,7.80
2023-05-18T14:23:58.257Z,7.90
2023-05-18T14:26:25.121Z,8.00
2023-05-18T14:28:51.878Z,7.90
2023-05-18T14:31:18.791Z,7.10
2023-05-18T14:33:45.738Z,6.60
2023-05-18T14:36:12.684Z,6.90
2023-05-18T14:38:39.480Z,6.90
2023-05-18T14:41:06.294Z,6.60
2023-05-18T14:43:33.089Z,7.60
2023-05-18T14:46:08.028Z,7.70
2023-05-18T14:48:35.462Z,6.90
2023-05-18T14:52:23.548Z,7.70
2023-05-18T14:54:50.477Z,7.50
2023-05-18T14:57:17.282Z,7.50
2023-05-18T14:59:44.045Z,7.10
2023-05-18T15:02:11.105Z,7.70
2023-05-18T15:04:38.004Z,8.00
2023-05-18T15:07:05.824Z,7.50
2023-05-18T15:09:32.641Z,7.50
2023-05-18T15:11:59.553Z,7.80
2023-05-18T15:14:26.439Z,7.00
2023-05-18T15:16:53.344Z,7.40
2023-05-18T15:19:20.130Z,8.10
2023-05-18T15:21:47.058Z,7.50
2023-05-18T15:24:13.961Z,7.80
2023-05-18T15:26:40.895Z,7.60
2023-05-18T15:29:07.972Z,7.70
2023-05-18T15:31:37.134Z,8.60
2023-05-18T15:34:04.055Z,7.50
2023-05-18T15:36:32.267Z,8.10
2023-05-18T15:38:59.161Z,8.10
2023-05-18T15:41:33.050Z,8.60
2023-05-18T15:44:01.774Z,8.10
2023-05-18T15:46:30.094Z,8.40
2023-05-18T15:48:57.658Z,8.60
2023-05-18T15:51:25.219Z,7.60
2023-05-18T15:53:52.001Z,6.70
2023-05-18T15:56:19.101Z,7.60
2023-05-18T15:58:46.027Z,8.10
2023-05-18T16:01:12.793Z,7.50
2023-05-18T16:03:39.865Z,8.20
2023-05-18T16:06:07.054Z,7.90
2023-05-18T16:08:33.833Z,8.10
2023-05-18T16:11:02.287Z,8.80
2023-05-18T16:13:29.237Z,7.40
2023-05-18T16:15:56.039Z,7.60
2023-05-18T16:18:22.866Z,7.00
2023-05-18T16:20:49.726Z,8.10
2023-05-18T16:23:16.554Z,7.90
2023-05-18T16:25:43.343Z,7.50
2023-05-18T16:28:10.140Z,8.60
2023-05-18T16:30:37.106Z,8.20
2023-05-18T16:33:04.076Z,7.80
2023-05-18T16:35:31.998Z,7.30
2023-05-18T16:37:59.123Z,7.80
2023-05-18T16:40:25.992Z,7.10
2023-05-18T16:43:11.588Z,6.80
2023-05-18T16:45:52.679Z,7.00
2023-05-18T16:48:19.566Z,7.20
2023-05-18T16:50:46.339Z,8.20
2023-05-18T16:53:13.261Z,7.80
2023-05-18T16:55:40.123Z,7.70
2023-05-18T16:58:06.988Z,7.10
2023-05-18T17:00:33.932Z,7.40
2023-05-18T17:03:03.393Z,8.20
2023-05-18T17:05:30.317Z,7.50
2023-05-18T17:07:57.105Z,8.60
2023-05-18T17:10:24.078Z,7.10
2023-05-18T17:12:51.906Z,7.50
2023-05-18T17:15:18.846Z,7.90
2023-05-18T17:17:45.738Z,8.50
2023-05-18T17:20:12.611Z,7.70
2023-05-18T17:22:39.526Z,7.70
2023-05-18T17:25:07.514Z,7.30
2023-05-18T17:27:34.296Z,8.60
2023-05-18T17:30:01.103Z,7.50
2023-05-18T17:32:27.989Z,9.10
2023-05-18T17:34:54.786Z,7.90
2023-05-18T17:37:22.050Z,7.30
2023-05-18T17:39:49.009Z,8.80
2023-05-18T17:42:16.212Z,8.60
2023-05-18T17:44:43.800Z,8.70
2023-05-18T17:47:11.980Z,8.40
2023-05-18T17:49:38.880Z,9.30
2023-05-18T17:52:05.909Z,9.20
2023-05-18T17:54:32.745Z,9.20
2023-05-18T17:56:59.537Z,9.00
2023-05-18T17:59:26.655Z,8.30
2023-05-18T18:01:53.573Z,8.60
2023-05-18T18:04:20.639Z,8.90
2023-05-18T18:06:47.579Z,8.80
2023-05-18T18:09:14.517Z,9.70
2023-05-18T18:11:41.582Z,9.20
2023-05-18T18:14:08.422Z,8.60
2023-05-18T18:16:35.408Z,9.10
2023-05-18T18:19:02.946Z,9.10
2023-05-18T18:21:29.839Z,9.10
2023-05-18T18:23:56.765Z,8.70
2023-05-18T18:26:23.609Z,9.20
2023-05-18T18:28:51.226Z,8.90
2023-05-18T18:31:20.365Z,9.40
2023-05-18T18:33:50.270Z,8.80
2023-05-18T18:36:17.183Z,9.40
2023-05-18T18:38:44.024Z,10.00
2023-05-18T18:41:11.396Z,10.00
2023-05-18T18:43:41.228Z,8.80
2023-05-18T18:46:08.106Z,10.40
2023-05-18T18:48:34.942Z,9.40
2023-05-18T18:51:01.758Z,10.10
2023-05-18T18:53:28.594Z,9.80
2023-05-18T18:55:57.305Z,10.10
2023-05-18T18:58:24.399Z,9.00
2023-05-18T19:00:51.239Z,8.20
2023-05-18T19:03:18.101Z,9.20
2023-05-18T19:05:45.012Z,9.70
2023-05-18T19:08:11.948Z,8.40
2023-05-18T19:10:38.796Z,9.10
2023-05-18T19:13:06.089Z,9.10
2023-05-18T19:15:34.189Z,9.50
2023-05-18T19:18:01.459Z,10.20
2023-05-18T19:20:28.483Z,8.80
2023-05-18T19:22:55.435Z,8.60
2023-05-18T19:25:24.698Z,9.40
2023-05-18T19:27:54.753Z,9.70
2023-05-18T19:30:22.202Z,8.60
2023-05-18T19:32:49.795Z,9.60
2023-05-18T19:35:19.516Z,10.30
2023-05-18T19:37:47.286Z,9.80
2023-05-18T19:40:14.089Z,9.90
2023-05-18T19:42:40.908Z,9.90
2023-05-18T19:45:07.979Z,9.10
2023-05-18T19:47:34.949Z,9.70
2023-05-18T19:50:01.977Z,9.90
2023-05-18T19:52:28.803Z,9.50
2023-05-18T19:54:56.316Z,9.20
2023-05-18T19:57:23.190Z,9.60
2023-05-18T19:59:50.088Z,9.60
2023-05-18T20:02:16.945Z,9.80
2023-05-18T20:04:43.702Z,9.90
2023-05-18T20:07:12.905Z,9.70
2023-05-18T20:09:39.920Z,10.90
2023-05-18T20:12:07.092Z,9.90
2023-05-18T20:14:34.627Z,9.90
2023-05-18T20:17:01.856Z,10.70
2023-05-18T20:19:28.995Z,10.60
2023-05-18T20:21:56.237Z,10.10
2023-05-18T20:24:24.463Z,10.90
2023-05-18T20:26:51.275Z,10.30
2023-05-18T20:29:18.037Z,10.60
2023-05-18T20:31:45.057Z,11.80
2023-05-18T20:34:11.966Z,10.80
2023-05-18T20:36:39.361Z,11.20
2023-05-18T20:39:07.388Z,10.90
2023-05-18T20:41:34.343Z,10.80
2023-05-18T20:44:02.258Z,11.20
2023-05-18T20:46:31.194Z,11.20
2023-05-18T20:48:58.274Z,11.20
2023-05-18T20:51:25.220Z,12.00
2023-05-18T20:53:52.162Z,11.40
2023-05-18T20:56:18.994Z,11.70
2023-05-18T20:58:50.046Z,11.30
2023-05-18T21:01:18.851Z,11.40
2023-05-18T21:03:46.072Z,11.80
2023-05-18T21:06:14.543Z,11.00
2023-05-18T21:08:41.480Z,10.90
2023-05-18T21:11:08.290Z,11.80
2023-05-18T21:13:36.946Z,11.90
2023-05-18T21:16:06.886Z,11.30
2023-05-18T21:18:34.792Z,12.40
2023-05-18T21:23:29.463Z,11.70
2023-05-18T21:25:56.929Z,11.50
2023-05-18T21:28:26.592Z,11.90
2023-05-18T21:30:54.303Z,12.30
2023-05-18T21:33:21.551Z,12.70
2023-05-18T21:35:48.505Z,12.80
2023-05-18T21:38:16.798Z,14.40
2023-05-18T21:40:44.065Z,12.40
2023-05-18T21:43:11.211Z,13.70
2023-05-18T21:45:38.821Z,13.60
2023-05-18T21:48:06.161Z,12.60
2023-05-18T21:50:35.163Z,13.30
2023-05-18T21:53:03.468Z,14.20
2023-05-18T21:55:31.452Z,14.50
2023-05-18T21:57:58.316Z,15.00
2023-05-18T22:00:25.174Z,14.90
2023-05-18T22:02:52.421Z,14.20
2023-05-18T22:05:19.529Z,14.70
2023-05-18T22:07:47.020Z,14.70
2023-05-18T22:10:14.041Z,15.30
2023-05-18T22:12:43.528Z,15.00
2023-05-18T22:15:11.506Z,14.80
2023-05-18T22:17:39.255Z,14.20
2023-05-18T22:20:09.790Z,14.40
2023-05-18T22:22:36.832Z,14.70
2023-05-18T22:25:03.747Z,15.90
2023-05-18T22:27:30.597Z,14.70
2023-05-18T22:29:57.724Z,17.30
2023-05-18T22:32:24.785Z,17.70
2023-05-18T22:34:52.093Z,18.90
2023-05-18T22:37:18.948Z,19.20
2023-05-18T22:39:45.900Z,19.80
2023-05-18T22:42:12.718Z,20.70
2023-05-18T22:44:39.481Z,21.00
2023-05-18T22:47:06.444Z,21.30
2023-05-18T22:49:36.086Z,21.60
2023-05-18T22:52:04.461Z,22.50
2023-05-18T22:54:31.273Z,23.10
2023-05-18T22:56:59.679Z,24.30
2023-05-18T22:59:29.429Z,23.60
2023-05-18T23:01:56.276Z,22.90
2023-05-18T23:04:23.091Z,24.20
2023-05-18T23:06:50.924Z,24.00
2023-05-18T23:09:18.519Z,24.10
2023-05-18T23:11:46.131Z,24.40
2023-05-18T23:14:13.122Z,24.90
2023-05-18T23:16:42.929Z,22.90
2023-05-18T23:19:12.329Z,24.00
2023-05-18T23:21:40.405Z,24.20
2023-05-18T23:24:08.099Z,24.80
2023-05-18T23:26:34.916Z,23.20
2023-05-18T23:29:01.760Z,22.60
2023-05-18T23:31:28.840Z,22.30
2023-05-18T23:33:56.117Z,23.00
2023-05-18T23:36:22.971Z,22.20
2023-05-18T23:38:49.748Z,20.90
2023-05-18T23:41:16.603Z,21.90
2023-05-18T23:43:43.687Z,22.60
2023-05-18T23:46:10.983Z,21.80
2023-05-18T23:48:38.421Z,21.50
2023-05-18T23:51:05.844Z,21.40
2023-05-18T23:53:32.764Z,21.90
2023-05-18T23:55:59.879Z,21.40
2023-05-18T23:58:31.511Z,22.30
